Orion II — 9HUT9 — position and weather

sailwx.info

Track history (hours):
 
Tides and Currents Weather Stations Pressure Air Temp Water Temp Dewpoint Dewpoint Depression Visibility Wind Speed Wind Dir Waves Ship Positions

Orion II

Last reported at 2018-Jul-21 23:59 UTC. Time now 2018-Jul-22 03:20 UTC.
Position N 53°21' W 005°37'.

Length 88 m; draft 4 m.

Type: Ship. MMSI: 249556000.

Date/timePositionNaut miles runAvg speedWind from/ knotsBaromVisibWave heightAir tempDewpointWater temp
2018-Jul-21 23:59N 53°21' W 005°37'3 6.8
2018-Jul-21 23:30N 53°21' W 005°43'3 6.8
2018-Jul-21 23:00N 53°21' W 005°48'3 6.5
2018-Jul-21 22:29N 53°21' W 005°54'  
2018-Jul-17 06:27N 58°58' W 003°18'5 8.1
2018-Jul-17 05:53N 58°54' W 003°12'10 9.3
2018-Jul-17 04:52N 58°46' W 003°02'512.9
2018-Jul-17 04:30N 58°42' W 002°60'612.8
2018-Jul-17 04:00N 58°36' W 002°53'7213.0
2018-Jul-16 22:27N 57°35' W 001°40'2413.3
2018-Jul-16 20:38N 57°13' W 001°56'213.5
2018-Jul-16 20:30N 57°11' W 001°58'4 8.9
2018-Jul-16 20:00N 57°08' W 002°04'1 1.1
2018-Jul-16 19:28N 57°09' W 002°05'0 0.0
2018-Jul-16 18:58N 57°09' W 002°05'0 0.0
2018-Jul-16 18:28N 57°09' W 002°05'0 0.0
2018-Jul-16 17:58N 57°09' W 002°05'0 0.0
2018-Jul-16 17:28N 57°09' W 002°05'0 0.0
2018-Jul-16 16:58N 57°09' W 002°05'0 0.0
2018-Jul-16 16:28N 57°09' W 002°05'0 0.0
2018-Jul-16 15:59N 57°09' W 002°05'0 0.0
2018-Jul-16 15:28N 57°09' W 002°05'0 0.0
2018-Jul-16 14:58N 57°09' W 002°05'0 0.0
2018-Jul-16 14:28N 57°09' W 002°05'0 0.0
2018-Jul-16 13:58N 57°09' W 002°05'0 0.0
2018-Jul-16 13:28N 57°09' W 002°05'0 0.0
2018-Jul-16 12:58N 57°09' W 002°05'0 0.0
2018-Jul-16 12:28N 57°09' W 002°05'0 0.0
2018-Jul-16 11:58N 57°09' W 002°05'0 0.0
2018-Jul-16 11:28N 57°09' W 002°05'0 0.0
2018-Jul-16 10:58N 57°09' W 002°05'0 0.0
2018-Jul-16 10:28N 57°09' W 002°05'0 0.0
2018-Jul-16 09:58N 57°09' W 002°05'0 0.0
2018-Jul-16 09:28N 57°09' W 002°05'0 0.0
2018-Jul-16 08:58N 57°09' W 002°05'0 0.0
2018-Jul-16 08:28N 57°09' W 002°05'0 0.0
2018-Jul-16 07:58N 57°09' W 002°05'0 0.0
2018-Jul-16 07:29N 57°09' W 002°05'0 0.0
2018-Jul-16 06:58N 57°09' W 002°05'0 0.0
2018-Jul-16 06:28N 57°09' W 002°05'0 0.0
2018-Jul-16 05:58N 57°09' W 002°05'0 0.0
2018-Jul-16 05:28N 57°09' W 002°05'0 0.7
2018-Jul-16 05:00N 57°09' W 002°05'2 4.3
2018-Jul-16 04:30N 57°09' W 002°01'3 5.8
2018-Jul-16 04:00N 57°06' W 002°01'6111.4
2018-Jul-15 22:37N 56°09' W 002°44'212.6
2018-Jul-15 22:29N 56°08' W 002°46'612.8
2018-Jul-15 22:00N 56°05' W 002°55'1011.5
2018-Jul-15 21:07N 56°00' W 003°12'1 6.5
2018-Jul-15 20:59N 55°59' W 003°11'0 0.2
2018-Jul-15 20:29N 55°59' W 003°11'0 0.0
2018-Jul-15 05:48N 55°59' W 003°11'0 0.4
2018-Jul-15 05:31N 55°59' W 003°11'0 0.6
2018-Jul-15 05:00N 55°59' W 003°11'2 3.2
2018-Jul-15 04:30N 56°00' W 003°09'611.6
2018-Jul-15 04:01N 56°03' W 002°60'4 8.3
2018-Jul-15 03:31N 56°06' W 002°54'5 9.1
2018-Jul-15 03:01N 56°08' W 002°47'5 9.3
2018-Jul-15 02:31N 56°11' W 002°40'5 9.2
2018-Jul-15 02:01N 56°13' W 002°33'5 9.7
2018-Jul-15 01:30N 56°17' W 002°28'510.3
2018-Jul-15 01:01N 56°22' W 002°23'510.3
2018-Jul-15 00:29N 56°26' W 002°18'3311.6
2018-Jul-14 21:38N 56°59' W 002°04'411.6
2018-Jul-14 21:16N 57°03' W 002°02'311.4
2018-Jul-14 21:01N 57°05' W 002°01'4 7.0
2018-Jul-14 20:31N 57°09' W 002°04'1 1.5
2018-Jul-14 20:00N 57°09' W 002°05'0 0.0
2018-Jul-14 19:30N 57°09' W 002°05'0 0.0
2018-Jul-14 19:00N 57°09' W 002°05'0 0.0
2018-Jul-14 18:30N 57°09' W 002°05'0 0.0
2018-Jul-14 18:00N 57°09' W 002°05'0 0.0
2018-Jul-14 17:30N 57°09' W 002°05'0 0.0
2018-Jul-14 17:00N 57°09' W 002°05'0 0.0
2018-Jul-14 16:30N 57°09' W 002°05'0 0.0
2018-Jul-14 16:00N 57°09' W 002°05'0 0.0
2018-Jul-14 15:30N 57°09' W 002°05'0 0.0
2018-Jul-14 15:00N 57°09' W 002°05'0 0.0
2018-Jul-14 14:30N 57°09' W 002°05'0 0.0
2018-Jul-14 13:30N 57°09' W 002°05'0 0.0
2018-Jul-14 13:00N 57°09' W 002°05'0 0.0
2018-Jul-14 12:30N 57°09' W 002°05'0 0.0
2018-Jul-14 12:00N 57°09' W 002°05'0 0.0
2018-Jul-14 11:30N 57°09' W 002°05'0 0.0
2018-Jul-14 11:00N 57°09' W 002°05'0 0.0
2018-Jul-14 10:30N 57°09' W 002°05'0 0.0
2018-Jul-14 10:00N 57°09' W 002°05'0 0.0
2018-Jul-14 09:30N 57°09' W 002°05'0 0.0
2018-Jul-14 08:57N 57°09' W 002°05'0 0.0
2018-Jul-14 08:30N 57°09' W 002°05'0 0.0
2018-Jul-14 08:00N 57°09' W 002°05'0 0.0
2018-Jul-14 07:30N 57°09' W 002°05'0 0.0
2018-Jul-14 07:00N 57°09' W 002°05'1 2.0
2018-Jul-14 06:30N 57°09' W 002°03'2 3.4
2018-Jul-14 06:00N 57°10' W 002°01'3 6.3
2018-Jul-14 05:30N 57°12' W 001°58'5 9.6
2018-Jul-14 05:00N 57°17' W 001°53'10 9.9
2018-Jul-14 03:58N 57°26' W 001°44'4 9.4
2018-Jul-14 03:30N 57°30' W 001°42'5 9.6
2018-Jul-14 02:59N 57°35' W 001°41'6910.6
2018-Jul-13 20:29N 58°33' W 002°50'714.8
2018-Jul-13 20:00N 58°39' W 002°57'916.4
2018-Jul-13 19:29N 58°47' W 003°02'610.9
2018-Jul-13 18:58N 58°53' W 003°06'  
Track history (hours):
 
Tides and Currents Weather Stations Pressure Air Temp Water Temp Dewpoint Dewpoint Depression Visibility Wind Speed Wind Dir Waves Ship Positions

Orion II

Last reported at 2018-Jul-21 23:59 UTC. Time now 2018-Jul-22 03:20 UTC.
Position N 53°21' W 005°37'.

Length 88 m; draft 4 m.

Type: Ship. MMSI: 249556000.

Date/timePositionNaut miles runAvg speedWind from/ knotsBaromVisibWave heightAir tempDewpointWater temp
2018-Jul-21 23:59N 53°21' W 005°37'3 6.8
2018-Jul-21 23:30N 53°21' W 005°43'3 6.8
2018-Jul-21 23:00N 53°21' W 005°48'3 6.5
2018-Jul-21 22:29N 53°21' W 005°54'  
2018-Jul-17 06:27N 58°58' W 003°18'5 8.1
2018-Jul-17 05:53N 58°54' W 003°12'10 9.3
2018-Jul-17 04:52N 58°46' W 003°02'512.9
2018-Jul-17 04:30N 58°42' W 002°60'612.8
2018-Jul-17 04:00N 58°36' W 002°53'7213.0
2018-Jul-16 22:27N 57°35' W 001°40'2413.3
2018-Jul-16 20:38N 57°13' W 001°56'213.5
2018-Jul-16 20:30N 57°11' W 001°58'4 8.9
2018-Jul-16 20:00N 57°08' W 002°04'1 1.1
2018-Jul-16 19:28N 57°09' W 002°05'0 0.0
2018-Jul-16 18:58N 57°09' W 002°05'0 0.0
2018-Jul-16 18:28N 57°09' W 002°05'0 0.0
2018-Jul-16 17:58N 57°09' W 002°05'0 0.0
2018-Jul-16 17:28N 57°09' W 002°05'0 0.0
2018-Jul-16 16:58N 57°09' W 002°05'0 0.0
2018-Jul-16 16:28N 57°09' W 002°05'0 0.0
2018-Jul-16 15:59N 57°09' W 002°05'0 0.0
2018-Jul-16 15:28N 57°09' W 002°05'0 0.0
2018-Jul-16 14:58N 57°09' W 002°05'0 0.0
2018-Jul-16 14:28N 57°09' W 002°05'0 0.0
2018-Jul-16 13:58N 57°09' W 002°05'0 0.0
2018-Jul-16 13:28N 57°09' W 002°05'0 0.0
2018-Jul-16 12:58N 57°09' W 002°05'0 0.0
2018-Jul-16 12:28N 57°09' W 002°05'0 0.0
2018-Jul-16 11:58N 57°09' W 002°05'0 0.0
2018-Jul-16 11:28N 57°09' W 002°05'0 0.0
2018-Jul-16 10:58N 57°09' W 002°05'0 0.0
2018-Jul-16 10:28N 57°09' W 002°05'0 0.0
2018-Jul-16 09:58N 57°09' W 002°05'0 0.0
2018-Jul-16 09:28N 57°09' W 002°05'0 0.0
2018-Jul-16 08:58N 57°09' W 002°05'0 0.0
2018-Jul-16 08:28N 57°09' W 002°05'0 0.0
2018-Jul-16 07:58N 57°09' W 002°05'0 0.0
2018-Jul-16 07:29N 57°09' W 002°05'0 0.0
2018-Jul-16 06:58N 57°09' W 002°05'0 0.0
2018-Jul-16 06:28N 57°09' W 002°05'0 0.0
2018-Jul-16 05:58N 57°09' W 002°05'0 0.0
2018-Jul-16 05:28N 57°09' W 002°05'0 0.7
2018-Jul-16 05:00N 57°09' W 002°05'2 4.3
2018-Jul-16 04:30N 57°09' W 002°01'3 5.8
2018-Jul-16 04:00N 57°06' W 002°01'6111.4
2018-Jul-15 22:37N 56°09' W 002°44'212.6
2018-Jul-15 22:29N 56°08' W 002°46'612.8
2018-Jul-15 22:00N 56°05' W 002°55'1011.5
2018-Jul-15 21:07N 56°00' W 003°12'1 6.5
2018-Jul-15 20:59N 55°59' W 003°11'0 0.2
2018-Jul-15 20:29N 55°59' W 003°11'0 0.0
2018-Jul-15 05:48N 55°59' W 003°11'0 0.4
2018-Jul-15 05:31N 55°59' W 003°11'0 0.6
2018-Jul-15 05:00N 55°59' W 003°11'2 3.2
2018-Jul-15 04:30N 56°00' W 003°09'611.6
2018-Jul-15 04:01N 56°03' W 002°60'4 8.3
2018-Jul-15 03:31N 56°06' W 002°54'5 9.1
2018-Jul-15 03:01N 56°08' W 002°47'5 9.3
2018-Jul-15 02:31N 56°11' W 002°40'5 9.2
2018-Jul-15 02:01N 56°13' W 002°33'5 9.7
2018-Jul-15 01:30N 56°17' W 002°28'510.3
2018-Jul-15 01:01N 56°22' W 002°23'510.3
2018-Jul-15 00:29N 56°26' W 002°18'3311.6
2018-Jul-14 21:38N 56°59' W 002°04'411.6
2018-Jul-14 21:16N 57°03' W 002°02'311.4
2018-Jul-14 21:01N 57°05' W 002°01'4 7.0
2018-Jul-14 20:31N 57°09' W 002°04'1 1.5
2018-Jul-14 20:00N 57°09' W 002°05'0 0.0
2018-Jul-14 19:30N 57°09' W 002°05'0 0.0
2018-Jul-14 19:00N 57°09' W 002°05'0 0.0
2018-Jul-14 18:30N 57°09' W 002°05'0 0.0
2018-Jul-14 18:00N 57°09' W 002°05'0 0.0
2018-Jul-14 17:30N 57°09' W 002°05'0 0.0
2018-Jul-14 17:00N 57°09' W 002°05'0 0.0
2018-Jul-14 16:30N 57°09' W 002°05'0 0.0
2018-Jul-14 16:00N 57°09' W 002°05'0 0.0
2018-Jul-14 15:30N 57°09' W 002°05'0 0.0
2018-Jul-14 15:00N 57°09' W 002°05'0 0.0
2018-Jul-14 14:30N 57°09' W 002°05'0 0.0
2018-Jul-14 13:30N 57°09' W 002°05'0 0.0
2018-Jul-14 13:00N 57°09' W 002°05'0 0.0
2018-Jul-14 12:30N 57°09' W 002°05'0 0.0
2018-Jul-14 12:00N 57°09' W 002°05'0 0.0
2018-Jul-14 11:30N 57°09' W 002°05'0 0.0
2018-Jul-14 11:00N 57°09' W 002°05'0 0.0
2018-Jul-14 10:30N 57°09' W 002°05'0 0.0
2018-Jul-14 10:00N 57°09' W 002°05'0 0.0
2018-Jul-14 09:30N 57°09' W 002°05'0 0.0
2018-Jul-14 08:57N 57°09' W 002°05'0 0.0
2018-Jul-14 08:30N 57°09' W 002°05'0 0.0
2018-Jul-14 08:00N 57°09' W 002°05'0 0.0
2018-Jul-14 07:30N 57°09' W 002°05'0 0.0
2018-Jul-14 07:00N 57°09' W 002°05'1 2.0
2018-Jul-14 06:30N 57°09' W 002°03'2 3.4
2018-Jul-14 06:00N 57°10' W 002°01'3 6.3
2018-Jul-14 05:30N 57°12' W 001°58'5 9.6
2018-Jul-14 05:00N 57°17' W 001°53'10 9.9
2018-Jul-14 03:58N 57°26' W 001°44'4 9.4
2018-Jul-14 03:30N 57°30' W 001°42'5 9.6
2018-Jul-14 02:59N 57°35' W 001°41'6910.6
2018-Jul-13 20:29N 58°33' W 002°50'714.8
2018-Jul-13 20:00N 58°39' W 002°57'916.4
2018-Jul-13 19:29N 58°47' W 003°02'610.9
2018-Jul-13 18:58N 58°53' W 003°06'  

Dump ship's entire track history